Time;durP1;ratioP1;P1;durP2;ratioP2;P2;SDS_P1;SDS_P2;PMS_P1;PMS_P2;Temp;Humidity;BMP_temperature;BMP_pressure;BME280_temperature;BME280_humidity;BME280_pressure;Samples;Min_cycle;Max_cycle;Signal;HPM_P1;HPM_P2
2021/01/02 00:02:05;;;;;;;8.57;2.88;;;10.10;99.90;;;;;;5033120;28;20057;-73
2021/01/02 00:05:04;;;;;;;12.07;2.58;;;10.10;99.90;;;;;;5034224;28;20029;-72
2021/01/02 00:07:39;;;;;;;10.82;2.72;;;10.10;99.90;;;;;;5034142;28;20129;-73
2021/01/02 00:10:06;;;;;;;10.60;2.75;;;10.10;99.90;;;;;;5034158;28;20025;-75
2021/01/02 00:12:51;;;;;;;7.38;2.35;;;10.10;99.90;;;;;;5034521;28;20134;-73
2021/01/02 00:15:55;;;;;;;4.18;1.95;;;10.00;99.90;;;;;;5033255;28;20505;-72
2021/01/02 00:18:37;;;;;;;22.20;4.28;;;10.20;99.90;;;;;;5034538;28;20495;-73
2021/01/02 00:21:24;;;;;;;10.45;3.05;;;10.30;99.90;;;;;;5034756;28;20036;-72
2021/01/02 00:24:13;;;;;;;13.52;2.47;;;10.40;99.90;;;;;;5034172;28;20167;-72
2021/01/02 00:26:46;;;;;;;10.52;3.20;;;10.30;99.90;;;;;;5032410;28;20026;-72
2021/01/02 00:29:23;;;;;;;7.82;2.42;;;10.30;99.90;;;;;;5033806;28;20032;-73
2021/01/02 00:32:03;;;;;;;8.52;1.70;;;10.30;99.90;;;;;;5035506;28;20452;-72
2021/01/02 00:34:50;;;;;;;11.65;1.88;;;10.20;99.90;;;;;;5041177;28;20053;-73
2021/01/02 00:37:31;;;;;;;15.23;2.83;;;10.10;99.90;;;;;;5033135;28;20060;-72
2021/01/02 00:40:05;;;;;;;18.02;3.40;;;10.10;99.90;;;;;;5033944;28;20033;-73
2021/01/02 00:42:32;;;;;;;9.02;2.90;;;10.10;99.90;;;;;;5033729;28;20025;-74
2021/01/02 00:45:00;;;;;;;11.85;2.60;;;10.10;99.90;;;;;;5033713;28;20021;-73
2021/01/02 00:47:27;;;;;;;9.30;2.42;;;10.10;99.90;;;;;;5029301;28;20370;-73
2021/01/02 00:49:57;;;;;;;11.10;2.38;;;10.20;99.90;;;;;;5033748;28;20075;-73
2021/01/02 00:52:59;;;;;;;6.80;2.80;;;10.20;99.90;;;;;;5033485;28;20532;-73
2021/01/02 00:55:25;;;;;;;15.85;2.78;;;10.20;99.90;;;;;;5016234;28;20065;-73
2021/01/02 00:58:21;;;;;;;4.28;2.35;;;10.20;99.90;;;;;;5032118;28;20389;-73
2021/01/02 01:01:04;;;;;;;9.43;2.58;;;10.10;99.90;;;;;;5033997;28;20573;-73
2021/01/02 01:03:57;;;;;;;13.52;2.83;;;10.00;99.90;;;;;;5035209;28;20116;-73
2021/01/02 01:06:28;;;;;;;4.05;2.53;;;10.10;99.90;;;;;;5033843;28;20424;-74
2021/01/02 01:09:02;;;;;;;8.73;2.25;;;10.00;99.90;;;;;;5035369;28;20432;-73
2021/01/02 01:11:34;;;;;;;9.07;2.78;;;10.10;99.90;;;;;;5034415;28;20436;-73
2021/01/02 01:14:03;;;;;;;11.48;2.85;;;10.00;99.90;;;;;;5034600;28;20030;-72
2021/01/02 01:16:39;;;;;;;7.35;2.08;;;10.00;99.90;;;;;;5033963;28;20071;-73
2021/01/02 01:19:06;;;;;;;13.13;2.95;;;10.00;99.90;;;;;;5033784;28;20063;-74
2021/01/02 01:21:39;;;;;;;9.43;1.80;;;10.10;99.90;;;;;;5034256;28;20410;-74
2021/01/02 01:24:14;;;;;;;7.90;2.75;;;10.20;99.90;;;;;;5035693;28;20029;-73
2021/01/02 01:26:50;;;;;;;10.63;2.08;;;10.30;99.90;;;;;;5034762;28;20467;-73
2021/01/02 01:29:26;;;;;;;6.80;1.80;;;10.30;99.90;;;;;;5033693;28;20609;-75
2021/01/02 01:31:58;;;;;;;8.10;1.48;;;10.30;99.90;;;;;;5034641;28;20539;-73
2021/01/02 01:34:27;;;;;;;7.55;2.38;;;10.30;99.90;;;;;;5034280;28;20022;-74
2021/01/02 01:36:54;;;;;;;5.97;2.05;;;10.20;99.90;;;;;;5023246;28;20124;-73
2021/01/02 01:39:23;;;;;;;2.67;1.92;;;10.30;99.90;;;;;;5024135;28;20032;-76
2021/01/02 01:41:57;;;;;;;5.03;1.40;;;10.30;99.90;;;;;;5031926;28;20036;-74
2021/01/02 01:44:38;;;;;;;2.47;1.60;;;10.40;99.90;;;;;;5027082;28;20022;-73
2021/01/02 01:47:18;;;;;;;13.02;1.73;;;10.40;99.90;;;;;;5028631;28;20025;-74
2021/01/02 01:50:10;;;;;;;3.33;1.92;;;10.50;99.90;;;;;;5029841;28;20025;-74
2021/01/02 01:52:51;;;;;;;6.57;2.15;;;10.50;99.90;;;;;;5025201;28;20051;-73
2021/01/02 01:55:29;;;;;;;6.88;2.85;;;10.50;99.90;;;;;;5027133;28;20489;-72
2021/01/02 01:58:11;;;;;;;4.75;1.48;;;10.50;99.90;;;;;;5032694;28;20469;-73
2021/01/02 02:00:44;;;;;;;5.53;1.95;;;10.50;99.90;;;;;;5029994;28;20025;-74
2021/01/02 02:03:26;;;;;;;8.57;1.15;;;10.40;99.90;;;;;;5032213;28;20041;-73
2021/01/02 02:06:21;;;;;;;4.28;1.45;;;10.30;99.90;;;;;;5028425;28;20017;-74
2021/01/02 02:08:56;;;;;;;6.00;2.22;;;10.00;99.90;;;;;;5022929;28;20056;-74
2021/01/02 02:11:42;;;;;;;9.60;1.73;;;10.00;99.90;;;;;;5029475;28;20021;-71
2021/01/02 02:14:16;;;;;;;3.95;1.58;;;9.70;99.90;;;;;;5031575;28;20113;-73
2021/01/02 02:16:52;;;;;;;2.63;1.48;;;9.60;99.90;;;;;;5029476;28;20025;-73
2021/01/02 02:19:40;;;;;;;10.73;1.98;;;9.60;99.90;;;;;;5032092;28;20107;-72
2021/01/02 02:22:14;;;;;;;3.05;1.45;;;9.50;99.90;;;;;;5033040;28;20036;-73
2021/01/02 02:24:47;;;;;;;3.50;1.15;;;9.50;99.90;;;;;;5031800;28;20033;-73
2021/01/02 02:27:14;;;;;;;4.82;1.20;;;9.50;99.90;;;;;;5026141;28;20020;-73
2021/01/02 02:30:06;;;;;;;4.75;1.00;;;9.50;99.90;;;;;;5025196;28;20504;-74
2021/01/02 02:32:38;;;;;;;1.15;0.88;;;9.60;99.90;;;;;;5027972;28;20042;-74
2021/01/02 02:35:13;;;;;;;5.13;1.65;;;9.60;99.90;;;;;;5031635;28;20029;-73
2021/01/02 02:37:41;;;;;;;3.42;2.08;;;9.60;99.90;;;;;;5028902;28;20026;-73
2021/01/02 02:40:08;;;;;;;2.90;1.45;;;9.60;99.90;;;;;;5023374;28;20029;-74
2021/01/02 02:42:37;;;;;;;5.47;0.73;;;9.60;99.90;;;;;;5032915;28;20388;-74
2021/01/02 02:45:09;;;;;;;2.58;0.80;;;9.70;99.90;;;;;;5024213;28;20041;-71
2021/01/02 02:47:38;;;;;;;2.20;1.73;;;9.60;99.90;;;;;;5031668;28;20560;-73
2021/01/02 02:50:14;;;;;;;3.85;0.98;;;9.60;99.90;;;;;;5031162;28;20453;-73
2021/01/02 02:52:41;;;;;;;6.13;1.08;;;9.60;99.90;;;;;;5032461;28;20098;-73
2021/01/02 02:55:08;;;;;;;6.07;2.83;;;9.50;99.90;;;;;;5031701;28;20079;-72
2021/01/02 02:57:38;;;;;;;7.15;1.33;;;9.50;99.90;;;;;;5032488;28;20060;-74
2021/01/02 03:00:05;;;;;;;4.15;1.20;;;9.50;99.90;;;;;;5034858;28;20032;-75
2021/01/02 03:02:34;;;;;;;3.55;1.10;;;9.50;99.90;;;;;;5035341;28;20017;-73
2021/01/02 03:05:03;;;;;;;3.30;1.13;;;9.50;99.90;;;;;;5035301;28;20089;-74
2021/01/02 03:07:29;;;;;;;5.97;1.23;;;9.60;99.90;;;;;;5035494;28;20033;-73
2021/01/02 03:09:56;;;;;;;5.32;1.10;;;9.50;99.90;;;;;;5034398;28;20036;-72
2021/01/02 03:12:22;;;;;;;3.38;1.20;;;9.60;99.90;;;;;;5030415;28;20029;-73
2021/01/02 03:14:58;;;;;;;6.18;1.20;;;9.50;99.90;;;;;;5034441;28;20022;-73
2021/01/02 03:17:24;;;;;;;2.38;1.15;;;9.60;99.90;;;;;;5034346;28;20030;-74
2021/01/02 03:19:49;;;;;;;4.13;1.20;;;9.70;99.90;;;;;;5036193;28;20032;-73
2021/01/02 03:22:15;;;;;;;2.20;0.80;;;9.70;99.90;;;;;;5037612;28;20752;-72
2021/01/02 03:24:41;;;;;;;4.90;1.02;;;9.80;99.90;;;;;;5031404;28;20033;-74
2021/01/02 03:27:13;;;;;;;3.75;1.23;;;9.80;99.90;;;;;;5030085;28;20022;-74
2021/01/02 03:29:39;;;;;;;;;;;9.80;99.90;;;;;;5036357;28;20080;-73
2021/01/02 03:32:05;;;;;;;4.95;1.20;;;9.90;99.90;;;;;;5035421;28;19909;-74
2021/01/02 03:34:36;;;;;;;7.20;1.55;;;9.90;99.90;;;;;;5036762;28;20014;-73
2021/01/02 03:37:02;;;;;;;5.45;1.23;;;9.90;99.90;;;;;;5035390;28;20025;-73
2021/01/02 03:39:28;;;;;;;4.20;1.17;;;9.90;99.90;;;;;;5035611;28;20519;-74
2021/01/02 03:41:54;;;;;;;5.93;0.90;;;10.00;99.90;;;;;;5035410;28;20068;-74
2021/01/02 03:44:20;;;;;;;2.58;0.70;;;10.00;99.90;;;;;;5030637;28;20030;-73
2021/01/02 03:46:45;;;;;;;1.75;0.90;;;10.00;99.90;;;;;;5033571;28;20485;-74
2021/01/02 03:49:11;;;;;;;3.03;1.10;;;10.00;99.90;;;;;;5036762;28;20102;-73
2021/01/02 03:51:37;;;;;;;3.30;0.52;;;10.00;99.90;;;;;;5034616;28;20025;-73
2021/01/02 03:54:03;;;;;;;2.42;1.20;;;9.90;99.90;;;;;;5035694;28;20079;-72
2021/01/02 03:56:29;;;;;;;2.25;0.70;;;9.90;99.90;;;;;;5034763;28;20022;-73
2021/01/02 03:58:55;;;;;;;5.28;0.60;;;9.80;99.90;;;;;;5034480;28;20029;-73
2021/01/02 04:01:20;;;;;;;1.67;0.80;;;9.80;99.90;;;;;;5034591;28;20057;-73
2021/01/02 04:03:46;;;;;;;0.77;0.55;;;9.70;99.90;;;;;;5035603;28;20544;-73
2021/01/02 04:06:12;;;;;;;0.50;0.50;;;9.70;99.90;;;;;;5026836;28;20081;-72
2021/01/02 04:08:38;;;;;;;0.75;0.47;;;9.70;99.90;;;;;;5014691;28;20041;-72
2021/01/02 04:11:04;;;;;;;1.17;0.70;;;9.80;99.90;;;;;;5034990;28;20056;-72
2021/01/02 04:13:30;;;;;;;3.42;0.60;;;9.80;99.90;;;;;;5034896;28;20052;-73
2021/01/02 04:15:55;;;;;;;1.48;0.77;;;9.70;99.90;;;;;;5033699;28;20037;-72
2021/01/02 04:18:22;;;;;;;2.88;0.80;;;9.80;99.90;;;;;;5033690;28;20021;-72
2021/01/02 04:20:49;;;;;;;2.95;0.57;;;9.70;99.90;;;;;;5037350;28;20021;-73
2021/01/02 04:23:15;;;;;;;0.30;0.30;;;9.70;99.90;;;;;;5036445;28;20516;-73
2021/01/02 04:25:41;;;;;;;1.55;0.80;;;9.70;99.90;;;;;;5035530;28;20025;-73
2021/01/02 04:28:11;;;;;;;0.40;0.40;;;9.70;99.90;;;;;;5033810;28;20099;-72
2021/01/02 04:30:37;;;;;;;0.80;0.60;;;9.70;99.90;;;;;;5034148;28;20052;-72
2021/01/02 04:33:04;;;;;;;1.85;1.15;;;9.60;99.90;;;;;;5028195;28;20022;-72
2021/01/02 04:35:30;;;;;;;9.55;1.63;;;9.60;99.90;;;;;;5031669;28;20397;-72
2021/01/02 04:37:55;;;;;;;1.60;0.82;;;9.60;99.90;;;;;;5033849;28;20021;-72
2021/01/02 04:40:21;;;;;;;2.10;0.55;;;9.70;99.90;;;;;;5033443;28;20040;-72
2021/01/02 04:42:49;;;;;;;1.83;0.57;;;9.60;99.90;;;;;;5033171;28;20485;-72
2021/01/02 04:45:15;;;;;;;2.40;0.85;;;9.60;99.90;;;;;;5048921;28;20025;-72
2021/01/02 04:47:45;;;;;;;1.42;0.60;;;9.70;99.90;;;;;;5031393;28;20025;-72
2021/01/02 04:50:11;;;;;;;0.98;0.77;;;9.70;99.90;;;;;;5027993;28;20361;-73
2021/01/02 04:52:38;;;;;;;2.92;0.65;;;9.70;99.90;;;;;;5031223;28;20049;-73
2021/01/02 04:55:06;;;;;;;2.53;0.98;;;9.80;99.90;;;;;;5034125;28;20025;-72
2021/01/02 04:57:37;;;;;;;7.78;0.70;;;9.80;99.90;;;;;;5032892;28;20037;-72
2021/01/02 05:00:09;;;;;;;1.55;0.80;;;9.80;99.90;;;;;;5033973;28;20358;-73
2021/01/02 05:02:38;;;;;;;;;;;9.90;99.90;;;;;;5034065;28;20085;-72
2021/01/02 05:05:06;;;;;;;3.55;0.93;;;9.90;99.90;;;;;;5034777;28;19909;-73
2021/01/02 05:07:33;;;;;;;2.63;1.58;;;10.00;99.90;;;;;;5026205;28;20029;-72
2021/01/02 05:09:59;;;;;;;1.98;0.70;;;10.00;99.90;;;;;;5024911;28;20435;-73
2021/01/02 05:12:35;;;;;;;2.42;1.25;;;10.10;99.90;;;;;;5033870;28;20017;-75
2021/01/02 05:15:08;;;;;;;6.55;1.05;;;10.00;99.90;;;;;;5033831;28;20026;-73
2021/01/02 05:17:35;;;;;;;5.30;0.90;;;10.00;99.90;;;;;;5035361;28;20017;-73
2021/01/02 05:20:08;;;;;;;2.08;0.88;;;10.20;99.90;;;;;;5034157;28;20029;-73
2021/01/02 05:22:39;;;;;;;4.03;1.38;;;10.20;99.90;;;;;;5032898;28;20068;-73
2021/01/02 05:25:19;;;;;;;4.30;1.23;;;10.10;99.90;;;;;;5031102;28;20029;-73
2021/01/02 05:27:48;;;;;;;0.93;0.80;;;10.00;99.90;;;;;;5033302;28;20037;-74
2021/01/02 05:30:26;;;;;;;6.82;1.40;;;10.00;99.90;;;;;;5031730;28;20053;-73
2021/01/02 05:33:25;;;;;;;3.58;2.08;;;10.00;99.90;;;;;;5032753;28;20033;-73
2021/01/02 05:35:51;;;;;;;3.08;1.20;;;10.00;99.90;;;;;;5024915;28;20045;-73
2021/01/02 05:38:25;;;;;;;2.30;1.13;;;10.00;99.90;;;;;;5026956;28;20539;-73
2021/01/02 05:41:01;;;;;;;1.83;0.88;;;10.00;99.90;;;;;;5032272;28;20508;-72
2021/01/02 05:43:28;;;;;;;3.65;1.23;;;9.90;99.90;;;;;;5033847;28;20017;-73
2021/01/02 05:45:55;;;;;;;1.33;0.95;;;10.00;99.90;;;;;;5025863;28;20025;-73
2021/01/02 05:48:28;;;;;;;4.97;1.30;;;9.90;99.90;;;;;;5033771;28;20097;-72
2021/01/02 05:50:57;;;;;;;5.30;1.33;;;9.90;99.90;;;;;;5026125;28;20075;-73
2021/01/02 05:53:33;;;;;;;4.25;1.13;;;10.00;99.90;;;;;;5033951;28;20022;-73
2021/01/02 05:56:03;;;;;;;1.52;1.42;;;10.10;99.90;;;;;;5031063;28;20606;-73
2021/01/02 05:58:33;;;;;;;4.70;3.55;;;10.10;99.90;;;;;;5032532;28;20051;-74
2021/01/02 06:01:07;;;;;;;3.40;1.13;;;10.10;99.90;;;;;;5031579;28;20370;-73
2021/01/02 06:03:35;;;;;;;3.03;2.30;;;10.10;99.90;;;;;;5033035;28;20100;-73
2021/01/02 06:06:12;;;;;;;3.92;1.35;;;10.10;99.90;;;;;;5029288;28;20105;-73
2021/01/02 06:08:47;;;;;;;4.10;1.15;;;10.10;99.90;;;;;;5018063;28;20481;-73
2021/01/02 06:11:15;;;;;;;4.43;1.25;;;10.00;99.90;;;;;;5022225;28;20509;-73
2021/01/02 06:13:44;;;;;;;1.30;0.88;;;10.00;99.90;;;;;;5032583;28;20112;-75
2021/01/02 06:16:10;;;;;;;1.98;0.73;;;10.00;99.90;;;;;;5032748;28;20056;-74
2021/01/02 06:18:44;;;;;;;1.50;1.00;;;9.90;99.90;;;;;;5031829;28;20018;-73
2021/01/02 06:21:18;;;;;;;4.07;0.80;;;9.90;99.90;;;;;;5038562;28;20425;-74
2021/01/02 06:23:46;;;;;;;3.95;0.70;;;9.90;99.90;;;;;;5030034;28;20040;-73
2021/01/02 06:26:14;;;;;;;2.72;1.20;;;10.00;99.90;;;;;;5032146;28;20021;-74
2021/01/02 06:28:41;;;;;;;5.03;1.20;;;10.00;99.90;;;;;;5030428;28;20616;-72
2021/01/02 06:31:10;;;;;;;4.35;1.05;;;10.10;99.90;;;;;;5028720;28;20374;-73
2021/01/02 06:33:42;;;;;;;9.02;1.60;;;10.00;99.90;;;;;;5032965;28;20021;-74
2021/01/02 06:36:26;;;;;;;;;;;10.00;99.90;;;;;;5026123;28;20038;-74
2021/01/02 06:39:27;;;;;;;4.47;1.30;;;10.10;99.90;;;;;;5035186;28;19912;-73
2021/01/02 06:41:54;;;;;;;0.68;0.68;;;10.10;99.90;;;;;;5035647;28;20537;-72
2021/01/02 06:44:45;;;;;;;3.25;0.90;;;10.20;99.90;;;;;;5035485;28;20025;-73
2021/01/02 06:47:47;;;;;;;4.40;1.13;;;10.20;99.90;;;;;;5030086;28;20056;-73
2021/01/02 06:50:17;;;;;;;4.28;1.10;;;10.20;99.90;;;;;;5020828;28;20026;-78
2021/01/02 06:52:46;;;;;;;1.75;0.90;;;10.30;99.90;;;;;;5015416;28;20058;-72
2021/01/02 06:55:26;;;;;;;4.85;1.30;;;10.40;99.90;;;;;;5032532;28;20640;-73
2021/01/02 06:58:12;;;;;;;4.97;1.20;;;10.40;99.90;;;;;;5033417;28;20036;-72
2021/01/02 07:00:39;;;;;;;1.80;1.25;;;10.40;99.90;;;;;;5034520;28;20052;-73
2021/01/02 07:03:28;;;;;;;3.22;1.70;;;10.40;99.90;;;;;;5035285;28;20464;-76
2021/01/02 07:05:53;;;;;;;4.72;1.20;;;10.40;99.90;;;;;;5034590;28;20021;-73
2021/01/02 07:08:43;;;;;;;9.85;1.70;;;10.30;99.90;;;;;;5033478;28;20056;-72
2021/01/02 07:11:22;;;;;;;2.05;1.15;;;10.40;99.90;;;;;;5027165;28;20033;-74
2021/01/02 07:13:49;;;;;;;5.57;1.48;;;10.40;99.90;;;;;;5031651;28;20029;-72
2021/01/02 07:16:34;;;;;;;6.80;1.65;;;10.40;99.90;;;;;;5033053;28;20022;-72
2021/01/02 07:19:00;;;;;;;4.65;2.08;;;10.40;99.90;;;;;;5034488;28;20020;-75
2021/01/02 07:21:36;;;;;;;5.68;1.75;;;10.50;99.90;;;;;;5035597;28;20485;-72
2021/01/02 07:24:20;;;;;;;3.33;1.77;;;10.50;99.90;;;;;;5031714;28;20040;-74
2021/01/02 07:26:47;;;;;;;3.85;2.10;;;10.60;99.90;;;;;;5033239;28;20089;-72
2021/01/02 07:29:20;;;;;;;6.43;2.53;;;10.60;99.90;;;;;;5023842;28;20022;-73
2021/01/02 07:31:46;;;;;;;5.85;1.70;;;10.60;99.90;;;;;;5031048;28;20519;-72
2021/01/02 07:34:30;;;;;;;5.30;1.60;;;10.60;99.90;;;;;;5033465;28;20076;-74
2021/01/02 07:37:00;;;;;;;7.82;2.10;;;10.60;99.90;;;;;;5032867;28;20021;-73
2021/01/02 07:39:26;;;;;;;3.20;1.85;;;10.70;99.90;;;;;;5034600;28;20025;-73
2021/01/02 07:41:54;;;;;;;2.55;1.33;;;10.70;99.90;;;;;;5032005;28;20104;-72
2021/01/02 07:44:21;;;;;;;6.30;1.58;;;10.70;99.90;;;;;;5032985;28;20030;-73
2021/01/02 07:46:47;;;;;;;6.40;1.75;;;10.70;99.90;;;;;;5033330;28;20488;-74
2021/01/02 07:49:17;;;;;;;14.73;3.20;;;10.70;99.90;;;;;;5029729;28;20400;-73
2021/01/02 07:51:50;;;;;;;6.05;1.70;;;10.70;99.90;;;;;;5032196;28;20104;-73
2021/01/02 07:54:28;;;;;;;4.07;2.13;;;10.80;99.90;;;;;;5032203;28;20032;-73
2021/01/02 07:56:55;;;;;;;7.43;1.90;;;10.80;99.90;;;;;;5033083;28;20029;-72
2021/01/02 07:59:22;;;;;;;2.70;1.38;;;10.90;99.90;;;;;;5033972;28;20645;-72
2021/01/02 08:01:52;;;;;;;4.65;1.67;;;11.00;99.90;;;;;;5032788;28;20064;-73
2021/01/02 08:04:19;;;;;;;5.53;1.73;;;11.00;99.90;;;;;;5033372;28;20030;-72
2021/01/02 08:06:53;;;;;;;6.82;1.90;;;11.00;99.90;;;;;;5031015;28;20492;-72
2021/01/02 08:09:20;;;;;;;6.53;1.65;;;11.00;99.90;;;;;;5021344;28;20040;-72
2021/01/02 08:11:57;;;;;;;3.28;1.10;;;11.10;99.90;;;;;;5028528;28;20047;-73
2021/01/02 08:14:24;;;;;;;9.95;2.42;;;11.10;99.90;;;;;;5032341;28;20043;-72
2021/01/02 08:16:58;;;;;;;3.30;1.77;;;11.20;99.90;;;;;;5032743;28;20424;-72
2021/01/02 08:19:24;;;;;;;5.18;1.77;;;11.20;99.90;;;;;;5033927;28;20473;-72
2021/01/02 08:21:51;;;;;;;4.28;1.88;;;11.20;99.90;;;;;;5033241;28;20116;-76
2021/01/02 08:24:20;;;;;;;3.63;2.00;;;11.30;99.90;;;;;;5031569;28;20036;-74
2021/01/02 08:26:47;;;;;;;2.80;1.55;;;11.30;99.90;;;;;;5026501;28;20073;-73
2021/01/02 08:29:14;;;;;;;4.10;1.63;;;11.40;99.90;;;;;;5032960;28;20034;-73
2021/01/02 08:31:48;;;;;;;6.25;1.83;;;11.40;99.90;;;;;;5033764;28;20021;-73
2021/01/02 08:34:23;;;;;;;3.30;1.48;;;11.30;99.90;;;;;;5021738;28;20489;-73
2021/01/02 08:36:49;;;;;;;4.03;1.63;;;11.30;99.90;;;;;;5032047;28;20032;-72
2021/01/02 08:39:19;;;;;;;2.20;1.33;;;11.30;99.90;;;;;;5033964;28;20493;-72
2021/01/02 08:41:56;;;;;;;4.32;1.83;;;11.30;99.90;;;;;;5033718;28;20026;-72
2021/01/02 08:44:26;;;;;;;2.67;1.50;;;11.30;99.90;;;;;;5029957;28;20025;-72
2021/01/02 08:46:52;;;;;;;3.13;1.48;;;11.30;99.90;;;;;;5032232;28;20393;-71
2021/01/02 08:49:26;;;;;;;2.60;1.60;;;11.30;99.90;;;;;;5029897;28;20060;-72
2021/01/02 08:51:52;;;;;;;5.13;1.92;;;11.40;99.90;;;;;;5032977;28;20044;-73
2021/01/02 08:54:18;;;;;;;4.97;2.50;;;11.50;99.90;;;;;;5030619;28;20025;-74
2021/01/02 08:56:44;;;;;;;4.97;1.77;;;11.60;99.90;;;;;;5032233;28;20017;-72
2021/01/02 08:59:13;;;;;;;6.97;2.35;;;11.50;99.90;;;;;;5031086;28;20021;-72
2021/01/02 09:01:39;;;;;;;5.18;1.88;;;11.60;99.90;;;;;;5035295;28;20102;-75
2021/01/02 09:04:12;;;;;;;5.10;2.45;;;11.50;99.90;;;;;;5034461;28;20076;-71
2021/01/02 09:06:38;;;;;;;5.22;1.67;;;11.60;99.90;;;;;;5033222;28;20037;-70
2021/01/02 09:09:06;;;;;;;7.75;2.65;;;11.70;99.90;;;;;;5033687;28;20036;-71
2021/01/02 09:11:49;;;;;;;5.85;2.47;;;11.80;99.90;;;;;;5033738;28;20033;-69
2021/01/02 09:14:15;;;;;;;5.32;3.20;;;11.70;99.90;;;;;;5033245;28;20022;-71
2021/01/02 09:16:57;;;;;;;7.88;1.88;;;11.60;99.90;;;;;;5032907;28;20014;-70
2021/01/02 09:19:24;;;;;;;;;;;11.60;99.90;;;;;;5033000;28;20121;-72
2021/01/02 09:21:50;;;;;;;8.07;2.05;;;11.60;99.90;;;;;;5033051;28;19935;-73
2021/01/02 09:24:22;;;;;;;7.70;2.63;;;11.70;99.90;;;;;;5032605;28;20029;-73
2021/01/02 09:26:49;;;;;;;3.35;1.63;;;11.70;99.90;;;;;;5032426;28;20021;-72
2021/01/02 09:29:17;;;;;;;3.95;1.52;;;11.70;99.90;;;;;;5032248;28;20024;-72
2021/01/02 09:31:43;;;;;;;5.20;2.03;;;11.70;99.90;;;;;;5032489;28;20461;-73
2021/01/02 09:34:10;;;;;;;6.05;2.42;;;11.70;99.90;;;;;;5032448;28;20021;-72
2021/01/02 09:36:36;;;;;;;7.93;4.07;;;11.80;99.90;;;;;;5032098;28;20017;-72
2021/01/02 09:39:04;;;;;;;4.72;2.92;;;11.70;99.90;;;;;;5032484;28;20385;-74
2021/01/02 09:41:30;;;;;;;5.07;1.63;;;11.70;99.90;;;;;;5032351;28;20021;-72
2021/01/02 09:43:57;;;;;;;2.53;1.73;;;11.80;99.90;;;;;;5032211;28;20380;-72
2021/01/02 09:46:25;;;;;;;8.00;1.63;;;11.70;99.90;;;;;;5032073;28;20032;-72
2021/01/02 09:48:53;;;;;;;1.83;1.52;;;11.70;99.90;;;;;;5032297;28;20033;-72
2021/01/02 09:51:22;;;;;;;4.20;1.75;;;11.70;99.90;;;;;;5031906;28;20047;-72
2021/01/02 09:53:49;;;;;;;5.00;2.00;;;11.80;99.90;;;;;;5031707;28;20384;-72
2021/01/02 09:56:15;;;;;;;6.30;1.83;;;11.70;99.90;;;;;;5030214;28;20362;-73
2021/01/02 09:58:42;;;;;;;8.35;2.88;;;11.70;99.90;;;;;;5031800;28;20033;-72
2021/01/02 10:01:08;;;;;;;6.70;2.42;;;11.70;99.90;;;;;;5031708;28;20025;-72
2021/01/02 10:03:34;;;;;;;3.63;2.13;;;11.80;99.90;;;;;;5031644;28;20447;-72
2021/01/02 10:06:00;;;;;;;3.53;2.88;;;11.80;99.90;;;;;;5032051;28;20033;-72
2021/01/02 10:08:26;;;;;;;7.68;2.63;;;11.80;99.90;;;;;;5032286;28;20060;-72
2021/01/02 10:10:52;;;;;;;2.22;1.20;;;11.80;99.90;;;;;;5032375;28;20029;-72
2021/01/02 10:13:20;;;;;;;5.57;2.47;;;11.90;99.90;;;;;;5032552;28;20100;-72
2021/01/02 10:15:46;;;;;;;7.00;1.88;;;12.00;99.90;;;;;;5031948;28;20032;-73
2021/01/02 10:18:13;;;;;;;4.05;2.28;;;12.10;99.90;;;;;;5032725;28;20017;-72
2021/01/02 10:20:39;;;;;;;7.78;2.10;;;12.20;99.90;;;;;;5032787;28;20158;-71
2021/01/02 10:23:04;;;;;;;3.85;1.80;;;12.20;99.90;;;;;;5032524;28;20507;-72
2021/01/02 10:25:30;;;;;;;9.63;2.72;;;12.30;99.90;;;;;;5032082;28;20040;-75
2021/01/02 10:27:56;;;;;;;6.75;3.72;;;12.40;99.90;;;;;;5032379;28;20037;-73
2021/01/02 10:30:23;;;;;;;7.07;2.42;;;12.40;99.90;;;;;;5031957;28;20025;-74
2021/01/02 10:32:48;;;;;;;4.13;1.40;;;12.60;99.90;;;;;;5032448;28;20021;-74
2021/01/02 10:35:16;;;;;;;7.88;2.38;;;12.60;99.90;;;;;;5032553;28;20032;-74
2021/01/02 10:37:45;;;;;;;7.28;2.10;;;12.70;99.90;;;;;;5032407;28;20030;-75
2021/01/02 10:40:11;;;;;;;8.07;2.92;;;12.90;99.90;;;;;;5031566;28;20021;-73
2021/01/02 10:42:38;;;;;;;8.07;3.30;;;13.00;99.90;;;;;;5030936;28;20089;-74
2021/01/02 10:45:05;;;;;;;5.65;2.45;;;13.10;99.90;;;;;;5031798;28;20083;-75
2021/01/02 10:47:31;;;;;;;9.55;3.22;;;13.20;99.90;;;;;;5032144;28;20426;-74
2021/01/02 10:49:58;;;;;;;4.13;1.83;;;13.20;99.90;;;;;;5032237;28;20152;-75
2021/01/02 10:52:26;;;;;;;7.03;2.15;;;13.10;99.90;;;;;;5032567;28;20022;-75
2021/01/02 10:54:54;;;;;;;8.50;2.15;;;13.00;99.90;;;;;;5032011;28;20021;-74
2021/01/02 10:57:24;;;;;;;10.93;2.42;;;12.80;99.90;;;;;;5031929;28;20022;-74
2021/01/02 10:59:51;;;;;;;6.55;2.63;;;12.80;99.90;;;;;;5030988;28;20030;-75
2021/01/02 11:02:18;;;;;;;3.67;2.10;;;12.70;99.90;;;;;;5032126;28;20028;-75
2021/01/02 11:04:43;;;;;;;9.88;2.78;;;12.70;99.90;;;;;;5032332;28;20093;-75
2021/01/02 11:07:10;;;;;;;3.60;1.67;;;12.70;99.90;;;;;;5030306;28;20111;-75
2021/01/02 11:09:36;;;;;;;8.85;2.83;;;12.70;99.90;;;;;;5032300;28;20109;-75
2021/01/02 11:12:03;;;;;;;5.90;2.40;;;12.60;99.90;;;;;;5032335;28;20491;-75
2021/01/02 11:14:29;;;;;;;10.93;3.63;;;12.60;99.90;;;;;;5032448;28;20026;-74
2021/01/02 11:16:56;;;;;;;8.85;2.70;;;12.60;99.90;;;;;;5031380;28;20125;-74
2021/01/02 11:19:24;;;;;;;7.00;2.90;;;12.50;99.90;;;;;;5031973;28;20021;-74
2021/01/02 11:21:52;;;;;;;9.50;2.78;;;12.60;99.90;;;;;;5035633;28;20037;-74
2021/01/02 11:24:24;;;;;;;7.13;2.28;;;12.60;99.90;;;;;;5035796;28;20025;-74
2021/01/02 11:26:52;;;;;;;12.70;3.22;;;12.70;99.90;;;;;;5035538;28;20029;-74
2021/01/02 11:29:19;;;;;;;9.32;2.58;;;12.70;99.90;;;;;;5035470;28;20423;-74
2021/01/02 11:31:46;;;;;;;8.10;2.97;;;12.80;99.90;;;;;;5035908;28;20163;-74
2021/01/02 11:34:12;;;;;;;8.48;2.92;;;12.70;99.90;;;;;;5035620;28;20021;-74
2021/01/02 11:36:39;;;;;;;9.35;2.50;;;12.70;99.90;;;;;;5033887;28;20026;-74
2021/01/02 11:39:07;;;;;;;8.18;3.22;;;12.70;99.90;;;;;;5034744;28;20056;-75
2021/01/02 11:41:36;;;;;;;6.38;2.22;;;12.50;99.90;;;;;;5035732;28;20485;-74
2021/01/02 11:44:02;;;;;;;4.70;2.75;;;12.40;99.90;;;;;;5035823;28;20208;-74
2021/01/02 11:46:38;;;;;;;10.95;4.22;;;12.30;99.90;;;;;;5034656;28;20022;-75
2021/01/02 11:49:06;;;;;;;13.23;4.15;;;12.20;99.90;;;;;;5035166;28;20021;-74
2021/01/02 11:51:32;;;;;;;5.00;3.08;;;12.00;99.90;;;;;;5035950;28;20318;-74
2021/01/02 11:53:58;;;;;;;5.55;2.10;;;12.00;99.90;;;;;;5038265;28;20456;-74
2021/01/02 11:56:27;;;;;;;9.77;3.08;;;11.90;99.90;;;;;;5039455;28;20018;-74
2021/01/02 11:58:55;;;;;;;5.53;2.45;;;12.00;99.90;;;;;;5041451;28;20049;-74
2021/01/02 12:01:23;;;;;;;6.38;2.17;;;12.00;99.90;;;;;;5037305;28;20025;-74
2021/01/02 12:03:49;;;;;;;6.13;2.00;;;11.90;99.90;;;;;;5038558;28;20030;-74
2021/01/02 12:06:15;;;;;;;8.45;3.67;;;11.90;99.90;;;;;;5039299;28;20021;-73
2021/01/02 12:08:42;;;;;;;9.27;2.22;;;12.00;99.90;;;;;;5040174;28;20025;-74
2021/01/02 12:11:08;;;;;;;6.22;2.67;;;12.10;99.90;;;;;;5039492;28;20055;-74
2021/01/02 12:13:40;;;;;;;5.80;3.63;;;12.20;99.90;;;;;;5040098;28;20274;-74
2021/01/02 12:16:06;;;;;;;;;;;12.20;99.90;;;;;;5036645;28;20028;-74
2021/01/02 12:18:33;;;;;;;3.63;2.15;;;12.20;99.90;;;;;;5035613;28;19905;-74
2021/01/02 12:20:59;;;;;;;10.85;2.13;;;12.30;99.90;;;;;;5034972;28;20108;-73
2021/01/02 12:23:25;;;;;;;6.30;1.90;;;12.30;99.90;;;;;;5035890;28;20123;-74
2021/01/02 12:25:52;;;;;;;5.63;1.98;;;12.30;99.90;;;;;;5034724;28;20026;-74
2021/01/02 12:28:18;;;;;;;2.50;1.17;;;12.30;99.90;;;;;;5033531;28;20053;-76
2021/01/02 12:30:44;;;;;;;5.50;1.80;;;12.30;99.90;;;;;;5035254;28;20470;-74
2021/01/02 12:33:10;;;;;;;5.03;1.90;;;12.20;99.90;;;;;;5037846;28;20032;-74
2021/01/02 12:35:36;;;;;;;6.50;2.58;;;12.10;99.90;;;;;;5034904;28;20105;-74
2021/01/02 12:38:02;;;;;;;3.15;1.75;;;12.10;99.90;;;;;;5033605;28;20025;-75
2021/01/02 12:40:27;;;;;;;2.88;1.80;;;11.90;99.90;;;;;;5035706;28;20026;-74
2021/01/02 12:42:53;;;;;;;3.08;1.80;;;11.60;99.90;;;;;;5034458;28;20687;-74
2021/01/02 12:45:19;;;;;;;4.95;2.13;;;11.40;99.90;;;;;;5034465;28;20378;-74
2021/01/02 12:47:45;;;;;;;4.55;2.60;;;11.30;99.90;;;;;;5033843;28;20037;-78
2021/01/02 12:50:12;;;;;;;3.83;1.55;;;11.20;99.90;;;;;;5034542;28;20037;-74
2021/01/02 12:52:38;;;;;;;2.85;1.80;;;11.20;99.90;;;;;;5038642;28;20037;-74
2021/01/02 12:55:05;;;;;;;2.83;1.38;;;11.10;99.90;;;;;;5042601;28;20025;-74
2021/01/02 12:57:31;;;;;;;2.17;1.25;;;11.10;99.90;;;;;;5038379;28;20089;-74
2021/01/02 12:59:57;;;;;;;1.52;1.13;;;11.10;99.90;;;;;;5034314;28;20452;-75
2021/01/02 13:02:24;;;;;;;2.10;1.60;;;11.10;99.90;;;;;;5033602;28;20021;-74
2021/01/02 13:04:51;;;;;;;2.45;1.58;;;11.10;99.90;;;;;;5034392;28;20028;-74
2021/01/02 13:07:20;;;;;;;11.07;1.27;;;11.10;99.90;;;;;;5031826;28;20107;-73
2021/01/02 13:09:46;;;;;;;2.92;1.50;;;11.00;99.90;;;;;;5032616;28;20442;-74